Decoded TAF's for Botswana

   
 
Print Page
 
 

Francistown - Botswana, FBFT

ADDS - TAFS form results

Aviation Digital Data Service (ADDS)

Output produced by TAFs form (0736 UTC 24 November 2017)
found at http://aviationweather.gov/adds/tafs/
 
Forecast for: FBFT (FRANCISTOWN , BW)
Text: TAF FBFT 240600Z 2409/2418 08008KT 9999 SCT025
Forecast period: 0900 to 1200 UTC 24 November 2017
Forecast type: FROM: standard forecast or significant change
Winds: from the E (80 degrees) at 9 MPH (8 knots; 4.2 m/s)
Visibility: 6 or more miles (10+ km)
Clouds: scattered clouds at 2500 feet AGL
Weather: no significant weather forecast for this period
Text: BECMG 2412/2414 FEW040CB
Forecast period: 1200 to 1800 UTC 24 November 2017
Forecast type: BECOMING: Conditions expected to become as follows by 1400 UTC 24 November 2017
Winds: from the E (80 degrees) at 9 MPH (8 knots; 4.2 m/s)
Visibility: 6 or more miles (10+ km)
Clouds: few clouds at 4000 feet AGL
Weather: no significant weather forecast for this period
Text: PROB30
Forecast period: 1500 to 1800 UTC 24 November 2017
Forecast type: TEMPORARY: The following changes expected for less than half the time period
Weather: TSRA  (rain associated with thunderstorm(s))

Array
Ghanzi - Botswana, FBGZ

ADDS - TAFS form results

Aviation Digital Data Service (ADDS)

Output produced by TAFs form (0736 UTC 24 November 2017)
found at http://aviationweather.gov/adds/tafs/
 
You entered "FBGZ"

Sorry, either there are no data available for your request or you did not enter any valid ICAO airport abbreviations.

See stations.txt for a list of known METAR and TAF locations. Then go back to the ADDS METARs or TAFs page and try again
 
Please try again and, if problems persist, then send mail to ncep.awc.adds@noaa.gov
Array
Kasane - Botswana, FBKE

ADDS - TAFS form results

Aviation Digital Data Service (ADDS)

Output produced by TAFs form (0736 UTC 24 November 2017)
found at http://aviationweather.gov/adds/tafs/
 
Forecast for: FBKE (KASANE , BW)
Text: TAF FBKE 240600Z 2409/2418 06011KT 9999 BKN025 FEW035CB
Forecast period: 0900 to 1800 UTC 24 November 2017
Forecast type: FROM: standard forecast or significant change
Winds: from the ENE (60 degrees) at 13 MPH (11 knots; 5.7 m/s)
Visibility: 6 or more miles (10+ km)
Ceiling: 2500 feet AGL
Clouds: broken clouds at 2500 feet AGL
few clouds at 3500 feet AGL
Weather: no significant weather forecast for this period
Text: BECMG 2409/2411 CAVOK
Forecast period: 0900 to 1200 UTC 24 November 2017
Forecast type: BECOMING: Conditions expected to become as follows by 1100 UTC 24 November 2017
Winds: from the ENE (60 degrees) at 13 MPH (11 knots; 5.7 m/s)
Visibility: 6 or more miles (10+ km)
Weather: NSW  (no significant weather)
Text: BECMG 2412/2414 FEW040CB
Forecast period: 1200 to 1800 UTC 24 November 2017
Forecast type: BECOMING: Conditions expected to become as follows by 1400 UTC 24 November 2017
Winds: from the ENE (60 degrees) at 13 MPH (11 knots; 5.7 m/s)
Visibility: 6 or more miles (10+ km)
Clouds: few clouds at 4000 feet AGL
Weather: NSW  (no significant weather)
Text: TEMPO 2415/2418 TSRA
Forecast period: 1500 to 1800 UTC 24 November 2017
Forecast type: TEMPORARY: The following changes expected for less than half the time period
Weather: TSRA  (rain associated with thunderstorm(s))

Array
Maun - Botswana, FBMN

ADDS - TAFS form results

Aviation Digital Data Service (ADDS)

Output produced by TAFs form (0736 UTC 24 November 2017)
found at http://aviationweather.gov/adds/tafs/
 
Forecast for: FBMN (MAUN , BW)
Text: TAF FBMN 240600Z 2409/2418 04012KT 9999 SCT025
Forecast period: 0900 to 1200 UTC 24 November 2017
Forecast type: FROM: standard forecast or significant change
Winds: from the NE (40 degrees) at 14 MPH (12 knots; 6.2 m/s)
Visibility: 6 or more miles (10+ km)
Clouds: scattered clouds at 2500 feet AGL
Weather: no significant weather forecast for this period
Text: BECMG 2412/2414 FEW040CB
Forecast period: 1200 to 1800 UTC 24 November 2017
Forecast type: BECOMING: Conditions expected to become as follows by 1400 UTC 24 November 2017
Winds: from the NE (40 degrees) at 14 MPH (12 knots; 6.2 m/s)
Visibility: 6 or more miles (10+ km)
Clouds: few clouds at 4000 feet AGL
Weather: no significant weather forecast for this period
Text: PROB30
Forecast period: 1500 to 1800 UTC 24 November 2017
Forecast type: TEMPORARY: The following changes expected for less than half the time period
Weather: TSRA  (rain associated with thunderstorm(s))

Array
Gaberone Sir Seretsi Kama - Botswana, FBSK

ADDS - TAFS form results

Aviation Digital Data Service (ADDS)

Output produced by TAFs form (0736 UTC 24 November 2017)
found at http://aviationweather.gov/adds/tafs/
 
Forecast for: FBSK (SIR SERETSE KHAM, BW)
Text: TAF FBSK 240300Z 2406/2512 03011KT 9999 SCT025 FEW035CB
Forecast period: 0600 to 1200 UTC 24 November 2017
Forecast type: FROM: standard forecast or significant change
Winds: from the NNE (30 degrees) at 13 MPH (11 knots; 5.7 m/s)
Visibility: 6 or more miles (10+ km)
Clouds: scattered clouds at 2500 feet AGL
few clouds at 3500 feet AGL
Weather: no significant weather forecast for this period
Text: BECMG 2408/24 10 CAVOK
Forecast period: 1200 UTC 24 November 2017 to 1200 UTC 25 November 2017
Forecast type: BECOMING: Conditions expected to become as follows by 1400 UTC 24 November 2017
Winds: from the NNE (30 degrees) at 13 MPH (11 knots; 5.7 m/s)
Visibility: 6 or more miles (10+ km)
Clouds: few clouds at 4000 feet AGL
Weather: no significant weather forecast for this period
Text: BECMG 2412/2414 FEW040CB
Forecast period: 1600 UTC 24 November 2017 to 0600 UTC 25 November 2017
Forecast type: TEMPORARY: The following changes expected for less than half the time period
Visibility: 2.80 miles (4.51 km)
Weather: TSRA  (rain associated with thunderstorm(s))

Array
Selebi Phikwe - Botswana, FBSP

ADDS - TAFS form results

Aviation Digital Data Service (ADDS)

Output produced by TAFs form (0736 UTC 24 November 2017)
found at http://aviationweather.gov/adds/tafs/
 
Forecast for: FBSP (SELEBI PHIKWE , BW)
Text: TAF FBSP 240600Z 2409/2418 06010KT 9999 BKN025
Forecast period: 0900 to 1200 UTC 24 November 2017
Forecast type: FROM: standard forecast or significant change
Winds: from the ENE (60 degrees) at 12 MPH (10 knots; 5.2 m/s)
Visibility: 6 or more miles (10+ km)
Ceiling: 2500 feet AGL
Clouds: broken clouds at 2500 feet AGL
Weather: no significant weather forecast for this period
Text: BECMG 2412/2414 FEW040CB
Forecast period: 1200 to 1800 UTC 24 November 2017
Forecast type: BECOMING: Conditions expected to become as follows by 1400 UTC 24 November 2017
Winds: from the ENE (60 degrees) at 12 MPH (10 knots; 5.2 m/s)
Visibility: 6 or more miles (10+ km)
Clouds: few clouds at 4000 feet AGL
Weather: no significant weather forecast for this period
Text: PROB30
Forecast period: 1500 to 1800 UTC 24 November 2017
Forecast type: TEMPORARY: The following changes expected for less than half the time period
Weather: TSRA  (rain associated with thunderstorm(s))

Array